Time;durP1;ratioP1;P1;durP2;ratioP2;P2;SDS_P1;SDS_P2;PMS_P1;PMS_P2;Temp;Humidity;BMP_temperature;BMP_pressure;BME280_temperature;BME280_humidity;BME280_pressure;Samples;Min_cycle;Max_cycle;Signal;HPM_P1;HPM_P2
2021/03/09 12:47:01;;;;;;;8.75;6.30;;;12.80;36.70;;;;;;5070334;28;20369;-68
2021/03/09 12:49:27;;;;;;;12.32;7.78;;;12.80;37.80;;;;;;5050095;28;20527;-68
2021/03/09 12:51:52;;;;;;;9.88;6.88;;;12.90;37.20;;;;;;5050308;28;20025;-68
2021/03/09 12:54:18;;;;;;;17.17;9.73;;;13.10;37.30;;;;;;5050480;28;20045;-68
2021/03/09 12:56:44;;;;;;;19.95;8.65;;;13.30;36.10;;;;;;5050096;28;20024;-68
2021/03/09 12:59:10;;;;;;;10.63;7.18;;;13.50;37.70;;;;;;5050062;28;20029;-68
2021/03/09 13:01:35;;;;;;;10.63;6.57;;;13.60;36.80;;;;;;5049827;28;20031;-68
2021/03/09 13:04:01;;;;;;;14.63;7.38;;;13.80;34.80;;;;;;5049735;28;20029;-69
2021/03/09 13:06:27;;;;;;;14.50;7.00;;;13.80;34.80;;;;;;5049927;28;20549;-70
2021/03/09 13:08:54;;;;;;;15.57;7.25;;;13.80;34.50;;;;;;5049946;28;20021;-69
2021/03/09 13:11:22;;;;;;;12.15;7.50;;;13.70;34.50;;;;;;5050033;28;20044;-68
2021/03/09 13:13:48;;;;;;;11.20;6.97;;;13.70;34.40;;;;;;5050061;28;20396;-69
2021/03/09 13:16:15;;;;;;;9.60;7.07;;;13.60;34.50;;;;;;5049764;28;20029;-71
2021/03/09 13:18:41;;;;;;;9.40;6.82;;;13.50;34.00;;;;;;5050036;28;20022;-68
2021/03/09 13:21:07;;;;;;;16.00;7.28;;;13.50;34.80;;;;;;5049572;28;20026;-68
2021/03/09 13:23:32;;;;;;;13.55;7.93;;;13.40;34.70;;;;;;5049994;28;20025;-68
2021/03/09 13:25:58;;;;;;;10.27;7.43;;;13.40;34.70;;;;;;5049653;28;20068;-68
2021/03/09 13:28:24;;;;;;;14.15;7.07;;;13.40;34.90;;;;;;5049717;28;20036;-69
2021/03/09 13:30:50;;;;;;;14.65;6.68;;;13.40;35.30;;;;;;5049523;28;20060;-68
2021/03/09 13:33:15;;;;;;;9.40;6.43;;;13.30;34.90;;;;;;5049791;28;20538;-68
2021/03/09 13:35:41;;;;;;;9.93;6.95;;;13.40;34.80;;;;;;5049443;28;20025;-68
2021/03/09 13:38:07;;;;;;;10.98;7.10;;;13.40;35.30;;;;;;5049294;28;20437;-68
2021/03/09 13:40:33;;;;;;;11.02;7.93;;;13.30;34.20;;;;;;5048959;28;20063;-70
2021/03/09 13:42:58;;;;;;;12.00;7.80;;;13.30;34.90;;;;;;5049217;28;20536;-68
2021/03/09 13:45:25;;;;;;;10.93;8.20;;;13.20;35.00;;;;;;5048784;28;20193;-69
2021/03/09 13:47:51;;;;;;;13.38;7.32;;;13.20;35.10;;;;;;5048780;28;20017;-68
2021/03/09 13:50:17;;;;;;;11.38;6.80;;;13.30;34.90;;;;;;5048836;28;20051;-68
2021/03/09 13:52:42;;;;;;;13.63;6.90;;;13.40;34.60;;;;;;5049081;28;20036;-68
2021/03/09 13:55:10;;;;;;;9.18;6.75;;;13.40;35.10;;;;;;5049162;28;20104;-69
2021/03/09 13:57:37;;;;;;;11.07;6.70;;;13.50;35.30;;;;;;5039852;28;20124;-69
2021/03/09 14:00:08;;;;;;;10.38;7.38;;;13.60;35.10;;;;;;5035666;28;20075;-71
2021/03/09 14:02:33;;;;;;;9.45;6.55;;;13.60;35.20;;;;;;5033732;28;20057;-67
2021/03/09 14:04:59;;;;;;;10.38;6.30;;;13.60;35.30;;;;;;5034848;28;20508;-68
2021/03/09 14:07:24;;;;;;;10.07;6.20;;;13.70;34.90;;;;;;5029404;28;20402;-69
2021/03/09 14:09:50;;;;;;;12.13;6.82;;;13.70;34.50;;;;;;5015202;28;20585;-71
2021/03/09 14:12:16;;;;;;;13.45;6.40;;;13.60;34.10;;;;;;5015286;28;20026;-69
2021/03/09 14:14:41;;;;;;;10.73;6.28;;;13.60;34.40;;;;;;5015072;28;20423;-69
2021/03/09 14:17:07;;;;;;;8.38;6.13;;;13.60;34.90;;;;;;5013367;28;20056;-70
2021/03/09 14:19:33;;;;;;;9.82;7.10;;;13.60;34.20;;;;;;5034720;28;20108;-68
2021/03/09 14:21:59;;;;;;;13.88;6.60;;;13.50;34.40;;;;;;5034749;28;20030;-68
2021/03/09 14:24:25;;;;;;;30.95;7.85;;;13.40;34.20;;;;;;5034429;28;20445;-69
2021/03/09 14:26:52;;;;;;;14.20;7.20;;;13.40;35.80;;;;;;5034884;28;20116;-69
2021/03/09 14:29:18;;;;;;;12.25;6.55;;;13.30;36.80;;;;;;5033935;28;20076;-68
2021/03/09 14:31:43;;;;;;;11.32;6.32;;;13.30;35.80;;;;;;5034225;28;20026;-69
2021/03/09 14:34:10;;;;;;;10.45;6.90;;;13.20;35.80;;;;;;5033744;28;20032;-69
2021/03/09 14:36:36;;;;;;;23.25;8.05;;;13.20;36.70;;;;;;5034108;28;20028;-69
2021/03/09 14:39:02;;;;;;;8.88;6.78;;;13.10;38.20;;;;;;5033916;28;20108;-69
2021/03/09 14:41:28;;;;;;;11.32;6.47;;;13.10;36.80;;;;;;5034415;28;20022;-68
2021/03/09 14:43:53;;;;;;;10.27;5.88;;;13.00;34.80;;;;;;5034108;28;20087;-69
2021/03/09 14:46:19;;;;;;;8.65;5.75;;;13.00;35.50;;;;;;5034004;28;20148;-68
2021/03/09 14:48:45;;;;;;;8.30;6.53;;;12.90;35.30;;;;;;5034018;28;20037;-69
2021/03/09 14:51:10;;;;;;;9.40;5.75;;;12.90;35.50;;;;;;5033906;28;20109;-70
2021/03/09 14:53:36;;;;;;;11.35;6.63;;;12.90;35.30;;;;;;5034107;28;20036;-69
2021/03/09 14:56:02;;;;;;;13.48;6.80;;;12.80;35.20;;;;;;5034118;28;20061;-69
2021/03/09 14:58:29;;;;;;;12.63;6.47;;;12.80;35.60;;;;;;5033653;28;20029;-69
2021/03/09 15:00:54;;;;;;;12.32;6.28;;;12.80;35.60;;;;;;5033726;28;20025;-69
2021/03/09 15:03:21;;;;;;;10.30;6.78;;;12.80;35.30;;;;;;5033883;28;20409;-68
2021/03/09 15:05:47;;;;;;;15.50;6.35;;;12.70;36.40;;;;;;5033663;28;20034;-69
2021/03/09 15:08:17;;;;;;;9.68;7.20;;;12.70;36.20;;;;;;5032929;28;20033;-69
2021/03/09 15:10:50;;;;;;;11.15;6.38;;;12.70;35.90;;;;;;5033508;28;20033;-69
2021/03/09 15:13:16;;;;;;;7.75;6.18;;;12.70;36.10;;;;;;5033720;28;20111;-68
2021/03/09 15:15:44;;;;;;;9.90;6.68;;;12.70;35.90;;;;;;5022806;28;20057;-67
2021/03/09 15:18:11;;;;;;;8.68;6.78;;;12.60;35.90;;;;;;5013260;28;20026;-69
2021/03/09 15:20:38;;;;;;;10.70;7.25;;;12.70;35.90;;;;;;5030181;28;20036;-69
2021/03/09 15:23:05;;;;;;;9.88;7.30;;;12.70;36.10;;;;;;5033300;28;20026;-69
2021/03/09 15:25:31;;;;;;;13.73;7.55;;;12.70;35.50;;;;;;5032483;28;20049;-70
2021/03/09 15:27:57;;;;;;;11.68;7.90;;;12.80;35.30;;;;;;5033095;28;20025;-70
2021/03/09 15:30:23;;;;;;;12.35;6.40;;;12.80;35.30;;;;;;5033497;28;20045;-69
2021/03/09 15:32:50;;;;;;;12.02;7.22;;;12.80;35.50;;;;;;5033687;28;20021;-69
2021/03/09 15:35:16;;;;;;;14.52;6.47;;;12.80;35.10;;;;;;5034040;28;20463;-68
2021/03/09 15:37:43;;;;;;;11.13;6.63;;;12.80;35.40;;;;;;5033370;28;20025;-69
2021/03/09 15:40:12;;;;;;;9.48;7.35;;;12.80;35.90;;;;;;5033888;28;20033;-69
2021/03/09 15:42:38;;;;;;;11.07;6.38;;;12.70;35.50;;;;;;5033900;28;20151;-69
2021/03/09 15:45:07;;;;;;;14.98;7.32;;;12.70;35.30;;;;;;5033701;28;20057;-69
2021/03/09 15:47:32;;;;;;;13.35;7.18;;;12.70;35.20;;;;;;5032669;28;20040;-68
2021/03/09 15:49:58;;;;;;;24.75;7.45;;;12.70;35.50;;;;;;5031031;28;20034;-69
2021/03/09 15:52:24;;;;;;;10.40;7.05;;;12.60;35.60;;;;;;5031362;28;20033;-70
2021/03/09 15:54:50;;;;;;;10.95;7.00;;;12.60;35.70;;;;;;5032405;28;20389;-68
2021/03/09 15:57:15;;;;;;;8.98;6.18;;;12.60;35.50;;;;;;5033524;28;20032;-69
2021/03/09 15:59:41;;;;;;;10.65;7.00;;;12.50;35.50;;;;;;5033456;28;20482;-69
2021/03/09 16:02:08;;;;;;;8.15;6.28;;;12.50;35.70;;;;;;5033526;28;20030;-69
2021/03/09 16:04:34;;;;;;;14.85;7.13;;;12.50;36.50;;;;;;5033125;28;20091;-68
2021/03/09 16:07:00;;;;;;;10.93;7.28;;;12.40;36.40;;;;;;5033774;28;20485;-69
2021/03/09 16:09:25;;;;;;;13.07;7.45;;;12.40;36.60;;;;;;5033235;28;20026;-70
2021/03/09 16:11:51;;;;;;;12.88;7.15;;;12.30;36.40;;;;;;5033113;28;20032;-71
2021/03/09 16:14:17;;;;;;;11.85;6.85;;;12.30;36.40;;;;;;5033269;28;20081;-71
2021/03/09 16:16:43;;;;;;;11.38;7.68;;;12.30;36.80;;;;;;5033039;28;20021;-71
2021/03/09 16:19:08;;;;;;;12.02;7.55;;;12.30;36.30;;;;;;5032949;28;20418;-71
2021/03/09 16:21:34;;;;;;;11.90;7.90;;;12.30;36.40;;;;;;5032759;28;20106;-70
2021/03/09 16:24:00;;;;;;;13.57;7.93;;;12.20;36.20;;;;;;5031692;28;20371;-70
2021/03/09 16:26:26;;;;;;;9.90;7.35;;;12.20;36.20;;;;;;5032845;28;20079;-70
2021/03/09 16:28:51;;;;;;;11.57;7.50;;;12.20;36.30;;;;;;5033164;28;20026;-69
2021/03/09 16:31:17;;;;;;;13.40;7.60;;;12.20;36.70;;;;;;5032990;28;20082;-70
2021/03/09 16:33:42;;;;;;;11.38;7.18;;;12.10;37.20;;;;;;5032697;28;20445;-69
2021/03/09 16:36:09;;;;;;;9.73;7.05;;;12.10;37.50;;;;;;5030658;28;20120;-69
2021/03/09 16:38:34;;;;;;;9.10;7.15;;;12.10;37.10;;;;;;5030085;28;20140;-70
2021/03/09 16:41:00;;;;;;;10.65;6.72;;;12.00;37.30;;;;;;5031760;28;20124;-70
2021/03/09 16:43:26;;;;;;;12.88;7.75;;;12.00;37.60;;;;;;5033021;28;20370;-70
2021/03/09 16:45:52;;;;;;;12.20;7.18;;;11.90;37.60;;;;;;5032728;28;20061;-68
2021/03/09 16:48:17;;;;;;;11.38;7.53;;;11.90;37.90;;;;;;5032771;28;20021;-68
2021/03/09 16:50:43;;;;;;;11.23;8.15;;;11.90;37.90;;;;;;5031538;28;20052;-68
2021/03/09 16:53:09;;;;;;;10.80;7.88;;;11.80;37.90;;;;;;5032851;28;20367;-68
2021/03/09 16:55:34;;;;;;;14.27;7.15;;;11.80;38.00;;;;;;5033080;28;20080;-68
2021/03/09 16:58:00;;;;;;;11.60;7.60;;;11.70;37.70;;;;;;5032733;28;20033;-69
2021/03/09 17:00:26;;;;;;;10.18;7.68;;;11.70;37.70;;;;;;5032876;28;20036;-67
2021/03/09 17:02:52;;;;;;;12.77;7.93;;;11.60;37.90;;;;;;5031800;28;20029;-68
2021/03/09 17:05:18;;;;;;;12.25;8.10;;;11.60;37.90;;;;;;5031613;28;20096;-68
2021/03/09 17:07:43;;;;;;;12.55;7.93;;;11.60;38.30;;;;;;5031960;28;20025;-69
2021/03/09 17:10:10;;;;;;;14.57;7.88;;;11.60;38.20;;;;;;5031596;28;20037;-69
2021/03/09 17:12:37;;;;;;;12.02;7.53;;;11.50;37.80;;;;;;5033184;28;20478;-68
2021/03/09 17:15:05;;;;;;;18.17;7.93;;;11.50;37.50;;;;;;5032235;28;20032;-68
2021/03/09 17:17:31;;;;;;;11.73;8.70;;;11.50;37.70;;;;;;5031716;28;20032;-69
2021/03/09 17:19:56;;;;;;;9.18;7.03;;;11.40;37.90;;;;;;5031779;28;20379;-68
2021/03/09 17:22:22;;;;;;;12.60;7.35;;;11.40;37.60;;;;;;5032696;28;20164;-69
2021/03/09 17:24:48;;;;;;;11.65;7.80;;;11.40;37.60;;;;;;5032652;28;20478;-68
2021/03/09 17:27:13;;;;;;;11.50;7.75;;;11.30;37.60;;;;;;5029328;28;20112;-69
2021/03/09 17:29:40;;;;;;;11.55;8.00;;;11.30;38.60;;;;;;5029795;28;20060;-68
2021/03/09 17:32:09;;;;;;;14.32;9.15;;;11.20;37.90;;;;;;5031623;28;20505;-69
2021/03/09 17:34:35;;;;;;;15.70;9.55;;;11.20;38.40;;;;;;5035941;28;20026;-67
2021/03/09 17:37:01;;;;;;;13.35;8.38;;;11.20;38.70;;;;;;5036377;28;20029;-67
2021/03/09 17:39:27;;;;;;;17.15;8.63;;;11.10;37.90;;;;;;5034554;28;20436;-68
2021/03/09 17:41:52;;;;;;;14.57;9.20;;;11.10;38.00;;;;;;5035423;28;20033;-68
2021/03/09 17:44:18;;;;;;;20.00;8.25;;;11.10;38.10;;;;;;5035925;28;20104;-68
2021/03/09 17:46:44;;;;;;;11.98;8.77;;;11.00;38.00;;;;;;5035482;28;20045;-68
2021/03/09 17:49:10;;;;;;;11.48;8.35;;;11.00;38.30;;;;;;5035720;28;20474;-69
2021/03/09 17:51:36;;;;;;;15.77;8.70;;;11.00;38.00;;;;;;5035642;28;20104;-69
2021/03/09 17:54:02;;;;;;;12.48;8.95;;;11.00;38.30;;;;;;5035888;28;20029;-69
2021/03/09 17:56:27;;;;;;;14.20;9.38;;;10.90;39.00;;;;;;5035500;28;20025;-69
2021/03/09 17:58:53;;;;;;;13.43;9.15;;;10.90;39.10;;;;;;5035663;28;20029;-69
2021/03/09 18:01:19;;;;;;;12.63;9.05;;;10.80;39.40;;;;;;5035671;28;20022;-68
2021/03/09 18:03:44;;;;;;;12.70;9.10;;;10.70;39.40;;;;;;5035479;28;20496;-69
2021/03/09 18:06:10;;;;;;;12.30;9.15;;;10.70;39.80;;;;;;5035400;28;20037;-68
2021/03/09 18:08:36;;;;;;;13.25;9.13;;;10.70;39.10;;;;;;5035346;28;20025;-70
2021/03/09 18:11:04;;;;;;;20.88;9.40;;;10.70;39.10;;;;;;5035528;28;20029;-69
2021/03/09 18:13:30;;;;;;;21.50;8.90;;;10.70;39.20;;;;;;5035822;28;20032;-69
2021/03/09 18:15:55;;;;;;;15.25;9.98;;;10.60;39.10;;;;;;5035456;28;20108;-69
2021/03/09 18:18:21;;;;;;;15.18;10.32;;;10.60;38.90;;;;;;5033727;28;20029;-69
2021/03/09 18:20:47;;;;;;;15.60;11.60;;;10.50;38.90;;;;;;5035532;28;20060;-69
2021/03/09 18:23:12;;;;;;;16.83;10.82;;;10.50;38.90;;;;;;5035579;28;20026;-70
2021/03/09 18:25:38;;;;;;;14.73;10.45;;;10.50;38.80;;;;;;5035114;28;20037;-69
2021/03/09 18:28:05;;;;;;;13.60;9.60;;;10.40;39.20;;;;;;5035065;28;20084;-69
2021/03/09 18:30:30;;;;;;;24.02;10.73;;;10.50;39.30;;;;;;5035265;28;20108;-70
2021/03/09 18:32:56;;;;;;;21.02;10.20;;;10.40;39.00;;;;;;5034977;28;20121;-70
2021/03/09 18:35:22;;;;;;;19.13;11.30;;;10.40;39.40;;;;;;5034926;28;20083;-70
2021/03/09 18:37:47;;;;;;;19.42;9.85;;;10.40;39.00;;;;;;5035121;28;20143;-71
2021/03/09 18:40:14;;;;;;;18.92;10.00;;;10.30;38.70;;;;;;5035088;28;20031;-70
2021/03/09 18:42:39;;;;;;;18.85;10.95;;;10.30;39.10;;;;;;5035176;28;20433;-70
2021/03/09 18:45:07;;;;;;;19.07;11.33;;;10.30;39.20;;;;;;5034701;28;20045;-70
2021/03/09 18:47:32;;;;;;;14.10;10.50;;;10.30;39.60;;;;;;5034481;28;20029;-69
2021/03/09 18:49:58;;;;;;;11.80;9.65;;;10.20;39.30;;;;;;5034470;28;20540;-70
2021/03/09 18:52:24;;;;;;;15.27;10.00;;;10.20;39.30;;;;;;5033677;28;20029;-70
2021/03/09 18:54:49;;;;;;;19.50;11.93;;;10.20;39.40;;;;;;5034667;28;20017;-70
2021/03/09 18:57:15;;;;;;;17.73;10.40;;;10.20;39.50;;;;;;5034308;28;20124;-70
2021/03/09 18:59:42;;;;;;;18.67;10.30;;;10.20;39.40;;;;;;5033869;28;20067;-70
2021/03/09 19:02:11;;;;;;;19.47;10.83;;;10.20;39.30;;;;;;5033499;28;20036;-71
2021/03/09 19:04:37;;;;;;;13.97;10.77;;;10.20;39.00;;;;;;5033152;28;20497;-70
2021/03/09 19:07:03;;;;;;;16.87;10.10;;;10.10;39.50;;;;;;5033624;28;20105;-70
2021/03/09 19:09:30;;;;;;;15.40;10.13;;;10.10;39.60;;;;;;5032277;28;20020;-69
2021/03/09 19:11:56;;;;;;;14.73;10.83;;;10.10;38.90;;;;;;5033774;28;20084;-69
2021/03/09 19:14:22;;;;;;;17.63;10.67;;;10.10;39.10;;;;;;5032384;28;20021;-70
2021/03/09 19:16:48;;;;;;;16.20;10.50;;;10.00;39.50;;;;;;5031890;28;20374;-70
2021/03/09 19:19:14;;;;;;;13.10;10.33;;;10.00;39.20;;;;;;5031886;28;20025;-70
2021/03/09 19:21:39;;;;;;;17.43;11.73;;;9.90;39.40;;;;;;5034115;28;20490;-70
2021/03/09 19:24:06;;;;;;;17.07;11.50;;;10.00;39.80;;;;;;5033595;28;20092;-71
2021/03/09 19:26:32;;;;;;;15.60;10.70;;;9.90;39.70;;;;;;5033144;28;20108;-70
2021/03/09 19:28:58;;;;;;;14.87;11.23;;;9.90;39.60;;;;;;5033052;28;20095;-70
2021/03/09 19:31:23;;;;;;;15.40;10.80;;;9.90;39.90;;;;;;5033419;28;20025;-69
2021/03/09 19:33:49;;;;;;;16.87;11.33;;;9.90;40.10;;;;;;5033197;28;20037;-69
2021/03/09 19:36:14;;;;;;;18.20;12.10;;;9.90;40.10;;;;;;5033517;28;20057;-70
2021/03/09 19:38:40;;;;;;;15.77;11.77;;;9.80;40.80;;;;;;5033161;28;20028;-70
2021/03/09 19:41:06;;;;;;;21.47;11.80;;;9.80;40.10;;;;;;5033260;28;20431;-71
2021/03/09 19:43:33;;;;;;;19.03;12.27;;;9.80;40.20;;;;;;5033358;28;20075;-71
2021/03/09 19:46:02;;;;;;;16.10;11.77;;;9.80;40.00;;;;;;5030447;28;20045;-70
2021/03/09 19:48:27;;;;;;;18.27;11.90;;;9.80;40.10;;;;;;5032981;28;20022;-71
2021/03/09 19:50:54;;;;;;;17.77;11.63;;;9.70;40.50;;;;;;5033355;28;20457;-72
2021/03/09 19:53:19;;;;;;;15.67;12.43;;;9.70;40.60;;;;;;5030481;28;20064;-71
2021/03/09 19:55:45;;;;;;;17.80;12.37;;;9.70;40.60;;;;;;5032454;28;20037;-71
2021/03/09 19:58:11;;;;;;;17.67;12.87;;;9.70;40.50;;;;;;5033574;28;20531;-71
2021/03/09 20:00:37;;;;;;;16.13;11.70;;;9.60;40.80;;;;;;5032887;28;20029;-71
2021/03/09 20:03:03;;;;;;;17.13;12.30;;;9.60;40.70;;;;;;5032720;28;20056;-71
2021/03/09 20:05:29;;;;;;;20.00;12.97;;;9.70;40.60;;;;;;5032832;28;20422;-71
2021/03/09 20:07:56;;;;;;;20.90;12.87;;;9.60;40.60;;;;;;5032589;28;20083;-71
2021/03/09 20:10:25;;;;;;;19.07;12.23;;;9.60;40.90;;;;;;5032704;28;20022;-71
2021/03/09 20:12:51;;;;;;;18.27;12.67;;;9.60;41.10;;;;;;5032930;28;20013;-71
2021/03/09 20:15:17;;;;;;;18.23;12.63;;;9.50;41.50;;;;;;5032788;28;20018;-72
2021/03/09 20:17:42;;;;;;;25.73;18.00;;;9.50;41.50;;;;;;5032375;28;20014;-68
2021/03/09 20:20:08;;;;;;;24.13;17.13;;;9.50;41.40;;;;;;5032287;28;20026;-68
2021/03/09 20:22:34;;;;;;;24.00;13.60;;;9.50;41.40;;;;;;5032743;28;20104;-67
2021/03/09 20:25:00;;;;;;;16.70;11.17;;;9.50;41.60;;;;;;5032478;28;20096;-67
2021/03/09 20:27:26;;;;;;;18.23;12.00;;;9.50;41.60;;;;;;5032442;28;20355;-67
2021/03/09 20:29:51;;;;;;;18.20;12.03;;;9.50;41.10;;;;;;5032788;28;20014;-69
2021/03/09 20:32:17;;;;;;;14.20;11.50;;;9.50;40.60;;;;;;5032461;28;20057;-69
2021/03/09 20:34:43;;;;;;;14.80;11.40;;;9.50;41.30;;;;;;5029789;28;20017;-70
2021/03/09 20:37:09;;;;;;;16.77;11.67;;;9.50;40.50;;;;;;5032557;28;20440;-70
2021/03/09 20:39:34;;;;;;;16.93;11.20;;;9.50;40.30;;;;;;5032348;28;20091;-69
2021/03/09 20:42:00;;;;;;;21.03;11.63;;;9.50;40.40;;;;;;5031945;28;20024;-68
2021/03/09 20:44:26;;;;;;;15.13;11.63;;;9.50;40.80;;;;;;5032051;28;20057;-68
2021/03/09 20:46:51;;;;;;;15.53;11.40;;;9.50;40.90;;;;;;5032124;28;20053;-68
2021/03/09 20:49:17;;;;;;;16.17;11.60;;;9.50;41.30;;;;;;5032208;28;20028;-68
2021/03/09 20:51:43;;;;;;;17.87;12.27;;;9.50;41.50;;;;;;5032391;28;20025;-71
2021/03/09 20:54:09;;;;;;;15.33;11.83;;;9.50;41.20;;;;;;5031999;28;20075;-69
2021/03/09 20:56:34;;;;;;;17.30;12.93;;;9.40;41.20;;;;;;5031969;28;20109;-69
2021/03/09 20:59:00;;;;;;;17.03;12.17;;;9.40;41.50;;;;;;5032117;28;20014;-69
2021/03/09 21:01:26;;;;;;;15.30;11.43;;;9.40;41.20;;;;;;5032215;28;20025;-71
2021/03/09 21:03:52;;;;;;;17.07;12.47;;;9.40;41.00;;;;;;5032026;28;20074;-69
2021/03/09 21:06:18;;;;;;;15.20;11.70;;;9.40;40.90;;;;;;5032128;28;20120;-70
2021/03/09 21:08:44;;;;;;;16.17;11.97;;;9.40;40.70;;;;;;5035911;28;20406;-70
2021/03/09 21:11:09;;;;;;;19.07;11.63;;;9.40;41.20;;;;;;5035875;28;20022;-70
2021/03/09 21:13:35;;;;;;;27.50;15.27;;;9.40;41.00;;;;;;5036171;28;20525;-69
2021/03/09 21:16:01;;;;;;;18.67;12.93;;;9.30;41.00;;;;;;5036265;28;20072;-71
2021/03/09 21:18:27;;;;;;;22.70;12.47;;;9.30;41.40;;;;;;5035601;28;20017;-71
2021/03/09 21:20:53;;;;;;;15.20;11.10;;;9.30;41.40;;;;;;5036036;28;20064;-69
2021/03/09 21:23:18;;;;;;;17.57;12.00;;;9.30;41.10;;;;;;5035827;28;20024;-69
2021/03/09 21:25:44;;;;;;;16.57;11.80;;;9.30;40.80;;;;;;5034331;28;20596;-70
2021/03/09 21:28:11;;;;;;;15.20;11.80;;;9.30;40.90;;;;;;5035623;28;20347;-69
2021/03/09 21:30:39;;;;;;;16.33;12.37;;;9.30;40.80;;;;;;5036253;28;20417;-67
2021/03/09 21:33:07;;;;;;;18.80;12.83;;;9.30;40.50;;;;;;5034155;28;20551;-68
2021/03/09 21:35:32;;;;;;;17.50;12.23;;;9.20;40.60;;;;;;5035226;28;20445;-68
2021/03/09 21:37:58;;;;;;;19.93;13.07;;;9.20;40.60;;;;;;5035060;28;20053;-69
2021/03/09 21:40:24;;;;;;;19.37;12.20;;;9.20;40.80;;;;;;5034645;28;20336;-69
2021/03/09 21:42:49;;;;;;;18.73;12.57;;;9.10;40.90;;;;;;5035686;28;20425;-70
2021/03/09 21:45:15;;;;;;;19.67;12.27;;;9.20;40.80;;;;;;5033928;28;20504;-68
2021/03/09 21:47:41;;;;;;;21.47;12.37;;;9.10;40.70;;;;;;5035582;28;20029;-69
2021/03/09 21:50:08;;;;;;;17.53;12.50;;;9.10;41.50;;;;;;5035973;28;20048;-68
2021/03/09 21:52:34;;;;;;;17.67;12.77;;;9.10;42.20;;;;;;5035901;28;20056;-67
2021/03/09 21:55:00;;;;;;;17.90;12.60;;;9.10;41.80;;;;;;5035679;28;20017;-68
2021/03/09 21:57:26;;;;;;;17.73;12.87;;;9.10;41.60;;;;;;5036279;28;20087;-69
2021/03/09 21:59:51;;;;;;;21.20;14.10;;;9.10;41.80;;;;;;5035093;28;20349;-70
2021/03/09 22:02:18;;;;;;;27.47;16.40;;;9.10;41.90;;;;;;5033860;28;20021;-70
2021/03/09 22:04:45;;;;;;;19.17;13.60;;;9.10;42.00;;;;;;5032734;28;20052;-69
2021/03/09 22:07:11;;;;;;;23.07;14.60;;;9.00;42.20;;;;;;5033459;28;20041;-68
2021/03/09 22:09:37;;;;;;;18.53;13.23;;;9.00;42.00;;;;;;5034265;28;20492;-69
2021/03/09 22:12:04;;;;;;;16.93;12.30;;;9.00;42.00;;;;;;5034150;28;20037;-68
2021/03/09 22:14:30;;;;;;;16.50;12.53;;;9.00;41.80;;;;;;5035095;28;20045;-70
2021/03/09 22:16:56;;;;;;;20.93;13.07;;;9.00;40.90;;;;;;5035195;28;20022;-69
2021/03/09 22:19:21;;;;;;;17.70;12.33;;;9.00;40.80;;;;;;5034287;28;20532;-69
2021/03/09 22:21:48;;;;;;;17.00;12.47;;;9.00;41.40;;;;;;5035167;28;20026;-68
2021/03/09 22:24:14;;;;;;;18.80;12.60;;;8.90;41.40;;;;;;5034726;28;20025;-68
2021/03/09 22:26:40;;;;;;;17.37;12.37;;;9.00;41.30;;;;;;5034228;28;20433;-68
2021/03/09 22:29:06;;;;;;;21.23;12.10;;;8.90;41.30;;;;;;5034221;28;20028;-68
2021/03/09 22:31:32;;;;;;;15.87;11.30;;;8.90;41.30;;;;;;5034214;28;20098;-68
2021/03/09 22:33:59;;;;;;;17.13;11.70;;;8.90;41.30;;;;;;5033869;28;20025;-68
2021/03/09 22:36:25;;;;;;;18.03;12.23;;;8.90;41.60;;;;;;5034044;28;20029;-68
2021/03/09 22:38:51;;;;;;;15.30;11.63;;;8.90;41.50;;;;;;5034760;28;20108;-69
2021/03/09 22:41:17;;;;;;;19.47;11.90;;;8.90;41.30;;;;;;5034718;28;20026;-68
2021/03/09 22:43:42;;;;;;;15.00;11.17;;;8.90;41.00;;;;;;5034871;28;20026;-69
2021/03/09 22:46:08;;;;;;;16.80;11.33;;;8.90;41.10;;;;;;5034679;28;20056;-69
2021/03/09 22:48:34;;;;;;;15.23;11.17;;;8.90;41.30;;;;;;5034305;28;20029;-69
2021/03/09 22:50:59;;;;;;;17.97;11.93;;;8.80;40.80;;;;;;5034375;28;20079;-70
2021/03/09 22:53:25;;;;;;;17.33;11.90;;;8.80;41.60;;;;;;5034823;28;20466;-69
2021/03/09 22:55:54;;;;;;;15.37;11.00;;;8.80;41.10;;;;;;5033500;28;20124;-69
2021/03/09 22:58:20;;;;;;;16.03;11.40;;;8.80;41.20;;;;;;5032057;28;20029;-70
2021/03/09 23:00:46;;;;;;;21.73;11.87;;;8.80;41.10;;;;;;5032726;28;20036;-70
2021/03/09 23:03:11;;;;;;;15.20;11.63;;;8.80;41.20;;;;;;5034480;28;20059;-69
2021/03/09 23:05:37;;;;;;;17.17;11.77;;;8.80;41.40;;;;;;5034479;28;20128;-69
2021/03/09 23:08:03;;;;;;;16.47;11.83;;;8.70;41.50;;;;;;5034592;28;20026;-70
2021/03/09 23:10:28;;;;;;;16.77;11.57;;;8.70;41.50;;;;;;5034598;28;20021;-70
2021/03/09 23:12:54;;;;;;;15.27;11.27;;;8.70;41.80;;;;;;5034208;28;20536;-70
2021/03/09 23:15:20;;;;;;;14.70;10.80;;;8.70;41.80;;;;;;5034140;28;20053;-69
2021/03/09 23:17:46;;;;;;;15.13;11.10;;;8.70;41.80;;;;;;5034038;28;20026;-70
2021/03/09 23:20:26;;;;;;;16.53;11.27;;;8.70;42.00;;;;;;5034112;28;20030;-70
2021/03/09 23:22:52;;;;;;;16.00;10.77;;;8.70;41.90;;;;;;5034192;28;20173;-69
2021/03/09 23:25:19;;;;;;;18.17;11.50;;;8.60;41.90;;;;;;5034103;28;20053;-70
2021/03/09 23:27:45;;;;;;;15.40;11.00;;;8.60;42.00;;;;;;5034088;28;20026;-70
2021/03/09 23:30:13;;;;;;;16.57;10.37;;;8.60;42.00;;;;;;5032128;28;20021;-70
2021/03/09 23:32:39;;;;;;;14.47;10.57;;;8.60;42.00;;;;;;5034190;28;20040;-70
2021/03/09 23:35:07;;;;;;;18.87;10.57;;;8.60;42.00;;;;;;5034068;28;20026;-70
2021/03/09 23:37:33;;;;;;;16.43;10.73;;;8.60;42.20;;;;;;5034118;28;20112;-70
2021/03/09 23:39:59;;;;;;;14.43;10.30;;;8.60;42.10;;;;;;5034108;28;20105;-70
2021/03/09 23:42:25;;;;;;;14.87;10.97;;;8.60;42.10;;;;;;5033623;28;20091;-70
2021/03/09 23:44:51;;;;;;;14.33;10.63;;;8.60;42.10;;;;;;5033606;28;20029;-70
2021/03/09 23:47:17;;;;;;;16.00;10.70;;;8.60;42.30;;;;;;5033671;28;20091;-69
2021/03/09 23:49:43;;;;;;;17.33;11.17;;;8.60;42.30;;;;;;5033463;28;20470;-69
2021/03/09 23:52:08;;;;;;;15.70;11.13;;;8.60;42.00;;;;;;5033844;28;20129;-70
2021/03/09 23:54:34;;;;;;;15.30;10.53;;;8.60;42.30;;;;;;5032627;28;20056;-69
2021/03/09 23:56:59;;;;;;;16.10;11.80;;;8.50;42.60;;;;;;5033625;28;20052;-69
2021/03/09 23:59:25;;;;;;;24.70;12.93;;;8.50;42.60;;;;;;5033589;28;20389;-69
